Time;durP1;ratioP1;P1;durP2;ratioP2;P2;SDS_P1;SDS_P2;PMS_P1;PMS_P2;Temp;Humidity;BMP_temperature;BMP_pressure;BME280_temperature;BME280_humidity;BME280_pressure;Samples;Min_cycle;Max_cycle;Signal;HPM_P1;HPM_P2
2021/01/17 00:00:00;;;;;;;43.92;25.42;;;0.10;94.20;;;;;;5132743;27;20130;-54
2021/01/17 00:02:26;;;;;;;42.63;24.33;;;0.10;94.20;;;;;;5132442;28;20473;-54
2021/01/17 00:04:51;;;;;;;44.15;24.15;;;0.10;94.00;;;;;;5132679;27;20074;-55
2021/01/17 00:07:18;;;;;;;44.92;25.10;;;0.10;94.10;;;;;;5132835;28;20050;-54
2021/01/17 00:09:43;;;;;;;46.03;24.45;;;0.00;94.10;;;;;;5132836;27;20050;-53
2021/01/17 00:12:09;;;;;;;40.90;24.13;;;0.10;94.10;;;;;;5132523;28;20040;-55
2021/01/17 00:14:36;;;;;;;46.05;24.73;;;0.10;94.20;;;;;;5132570;27;20043;-54
2021/01/17 00:17:02;;;;;;;45.42;24.70;;;0.10;94.30;;;;;;5136557;27;20043;-54
2021/01/17 00:19:28;;;;;;;43.90;25.20;;;0.10;94.20;;;;;;5136458;27;20035;-53
2021/01/17 00:21:54;;;;;;;45.17;26.00;;;0.10;94.20;;;;;;5136316;27;20043;-53
2021/01/17 00:24:20;;;;;;;40.22;23.83;;;0.10;94.30;;;;;;5136181;27;20047;-55
2021/01/17 00:26:46;;;;;;;43.70;25.17;;;0.20;94.10;;;;;;5136013;27;20043;-55
2021/01/17 00:29:12;;;;;;;41.33;25.45;;;0.20;93.90;;;;;;5135859;27;20051;-52
2021/01/17 00:31:37;;;;;;;41.42;25.38;;;0.20;94.10;;;;;;5136111;27;20474;-55
2021/01/17 00:34:04;;;;;;;44.28;26.17;;;0.20;94.00;;;;;;5135998;27;20039;-53
2021/01/17 00:36:37;;;;;;;44.97;26.25;;;0.20;94.10;;;;;;5135698;27;20042;-52
2021/01/17 00:39:04;;;;;;;43.28;24.98;;;0.20;94.00;;;;;;5135871;27;20080;-54
2021/01/17 00:41:31;;;;;;;43.05;25.63;;;0.20;94.00;;;;;;5134688;27;20042;-53
2021/01/17 00:43:57;;;;;;;46.40;26.13;;;0.30;93.90;;;;;;5135610;27;20043;-55
2021/01/17 00:46:23;;;;;;;42.72;25.52;;;0.20;93.80;;;;;;5135739;27;20035;-53
2021/01/17 00:48:48;;;;;;;45.40;25.48;;;0.20;93.80;;;;;;5135557;27;20054;-54
2021/01/17 00:51:14;;;;;;;45.10;25.88;;;0.20;93.80;;;;;;5135249;27;20460;-52
2021/01/17 00:53:40;;;;;;;44.45;26.98;;;0.20;94.00;;;;;;5135513;27;20468;-53
2021/01/17 00:56:05;;;;;;;43.67;26.15;;;0.20;93.70;;;;;;5135415;27;20043;-54
2021/01/17 00:58:31;;;;;;;54.10;27.95;;;0.20;93.80;;;;;;5135336;27;20042;-55
2021/01/17 01:00:57;;;;;;;47.10;26.55;;;0.20;94.00;;;;;;5135122;27;20034;-53
2021/01/17 01:03:22;;;;;;;45.30;27.02;;;0.30;93.70;;;;;;5135371;27;20047;-54
2021/01/17 01:05:49;;;;;;;46.15;27.17;;;0.30;93.70;;;;;;5135212;27;20071;-54
2021/01/17 01:08:14;;;;;;;46.10;28.08;;;0.30;93.70;;;;;;5135059;27;20520;-53
2021/01/17 01:10:40;;;;;;;43.75;26.15;;;0.20;93.70;;;;;;5134963;27;20152;-55
2021/01/17 01:13:06;;;;;;;48.40;29.00;;;0.20;93.90;;;;;;5134924;27;20373;-55
2021/01/17 01:15:31;;;;;;;49.70;27.05;;;0.20;93.70;;;;;;5135254;27;20047;-53
2021/01/17 01:17:58;;;;;;;44.22;27.63;;;0.20;93.90;;;;;;5135036;27;20188;-55
2021/01/17 01:20:24;;;;;;;50.47;27.48;;;0.30;93.70;;;;;;5134975;27;20062;-54
2021/01/17 01:22:50;;;;;;;46.92;27.00;;;0.30;93.80;;;;;;5135184;27;20483;-55
2021/01/17 01:25:16;;;;;;;44.97;27.73;;;0.30;93.50;;;;;;5135161;27;20216;-54
2021/01/17 01:27:46;;;;;;;49.83;29.42;;;0.30;93.80;;;;;;5134626;27;20043;-53
2021/01/17 01:30:12;;;;;;;47.75;27.75;;;0.30;93.70;;;;;;5134862;27;20054;-55
2021/01/17 01:32:38;;;;;;;46.60;28.92;;;0.30;93.70;;;;;;5134921;27;20051;-55
2021/01/17 01:35:05;;;;;;;47.10;28.55;;;0.30;93.80;;;;;;5134884;27;20058;-55
2021/01/17 01:37:35;;;;;;;47.97;29.17;;;0.30;93.40;;;;;;5134997;27;20039;-54
2021/01/17 01:40:00;;;;;;;47.45;28.80;;;0.40;93.20;;;;;;5134609;27;20109;-53
2021/01/17 01:42:26;;;;;;;50.90;29.83;;;0.30;93.20;;;;;;5134432;27;20051;-55
2021/01/17 01:44:52;;;;;;;46.20;27.98;;;0.40;93.40;;;;;;5134714;27;20080;-54
2021/01/17 01:47:25;;;;;;;51.45;28.40;;;0.40;93.30;;;;;;5134426;27;20035;-55
2021/01/17 01:49:52;;;;;;;49.95;28.73;;;0.30;93.20;;;;;;5134258;27;20392;-55
2021/01/17 01:52:18;;;;;;;47.95;28.77;;;0.40;93.20;;;;;;5134106;27;20130;-54
2021/01/17 01:54:44;;;;;;;47.00;28.92;;;0.30;93.20;;;;;;5134255;27;20031;-54
2021/01/17 01:57:09;;;;;;;47.83;28.27;;;0.30;93.60;;;;;;5134371;27;20088;-55
2021/01/17 01:59:36;;;;;;;49.53;29.23;;;0.30;93.50;;;;;;5134145;27;20035;-54
2021/01/17 02:02:07;;;;;;;52.03;29.85;;;0.30;93.70;;;;;;5134305;27;20182;-56
2021/01/17 02:04:36;;;;;;;52.55;31.15;;;0.40;93.70;;;;;;5133921;27;20122;-56
2021/01/17 02:07:13;;;;;;;48.30;29.10;;;0.30;93.30;;;;;;5133882;27;20043;-53
2021/01/17 02:09:40;;;;;;;53.63;30.13;;;0.40;93.50;;;;;;5134199;27;20039;-54
2021/01/17 02:12:29;;;;;;;54.00;30.75;;;0.40;93.60;;;;;;5134100;27;20046;-55
2021/01/17 02:15:13;;;;;;;52.60;30.88;;;0.40;93.40;;;;;;5133894;27;20039;-55
2021/01/17 02:17:40;;;;;;;49.90;30.02;;;0.40;93.20;;;;;;5133617;27;20067;-55
2021/01/17 02:20:14;;;;;;;53.30;31.58;;;0.40;93.50;;;;;;5133983;27;20046;-53
2021/01/17 02:23:01;;;;;;;53.20;30.85;;;0.40;93.60;;;;;;5134113;27;20451;-53
2021/01/17 02:25:28;;;;;;;50.97;30.00;;;0.30;93.60;;;;;;5133621;27;20035;-54
2021/01/17 02:27:56;;;;;;;54.70;32.38;;;0.30;93.40;;;;;;5133464;27;20100;-55
2021/01/17 02:30:24;;;;;;;54.45;31.55;;;0.30;93.50;;;;;;5134123;27;20042;-54
2021/01/17 02:32:56;;;;;;;51.30;30.92;;;0.40;93.50;;;;;;5133759;27;20043;-53
2021/01/17 02:35:24;;;;;;;56.20;31.42;;;0.40;93.50;;;;;;5133565;27;20054;-54
2021/01/17 02:38:13;;;;;;;56.30;32.25;;;0.30;93.80;;;;;;5133060;27;20043;-55
2021/01/17 02:41:06;;;;;;;57.13;32.03;;;0.40;93.70;;;;;;5133437;27;20130;-54
2021/01/17 02:43:33;;;;;;;54.83;31.50;;;0.40;93.50;;;;;;5133414;27;20043;-52
2021/01/17 02:45:58;;;;;;;53.30;31.17;;;0.30;93.60;;;;;;5133400;27;20409;-52
2021/01/17 02:48:24;;;;;;;55.40;33.13;;;0.40;93.30;;;;;;5133514;27;20042;-54
2021/01/17 02:50:50;;;;;;;57.17;31.85;;;0.30;93.40;;;;;;5133017;27;20396;-52
2021/01/17 02:53:33;;;;;;;56.22;31.05;;;0.30;93.60;;;;;;5133185;27;20040;-54
2021/01/17 02:56:01;;;;;;;58.03;32.90;;;0.30;93.70;;;;;;5133569;27;20039;-52
2021/01/17 02:58:28;;;;;;;55.70;31.45;;;0.40;93.40;;;;;;5133209;27;20118;-55
2021/01/17 03:00:56;;;;;;;59.65;35.40;;;0.40;93.60;;;;;;5133184;27;20041;-54
2021/01/17 03:03:29;;;;;;;61.00;33.70;;;0.30;93.50;;;;;;5133171;27;20058;-54
2021/01/17 03:05:57;;;;;;;59.75;33.88;;;0.30;93.60;;;;;;5133403;27;20085;-55
2021/01/17 03:08:24;;;;;;;56.47;32.90;;;0.30;93.60;;;;;;5133328;27;20047;-55
2021/01/17 03:10:49;;;;;;;56.00;33.40;;;0.30;93.60;;;;;;5133131;27;20058;-55
2021/01/17 03:13:17;;;;;;;62.30;34.35;;;0.30;93.60;;;;;;5132969;28;20047;-55
2021/01/17 03:15:42;;;;;;;62.88;34.72;;;0.30;93.80;;;;;;5133485;27;20050;-52
2021/01/17 03:18:08;;;;;;;60.78;33.85;;;0.30;93.50;;;;;;5133060;27;20380;-54
2021/01/17 03:20:34;;;;;;;59.58;34.17;;;0.30;93.80;;;;;;5133085;27;20092;-54
2021/01/17 03:23:00;;;;;;;63.38;34.33;;;0.30;93.70;;;;;;5133104;28;20054;-55
2021/01/17 03:25:25;;;;;;;58.85;34.38;;;0.30;93.80;;;;;;5132820;28;20043;-55
2021/01/17 03:27:51;;;;;;;60.53;32.70;;;0.30;93.60;;;;;;5132811;28;20047;-54
2021/01/17 03:30:18;;;;;;;60.30;32.85;;;0.40;93.60;;;;;;5132920;28;20130;-55
2021/01/17 03:32:43;;;;;;;62.92;33.97;;;0.30;93.90;;;;;;5132753;27;20122;-55
2021/01/17 03:35:11;;;;;;;60.67;34.95;;;0.30;93.70;;;;;;5132636;28;20244;-54
2021/01/17 03:37:37;;;;;;;60.63;32.70;;;0.40;93.60;;;;;;5132892;27;20046;-53
2021/01/17 03:40:03;;;;;;;60.03;33.58;;;0.40;93.40;;;;;;5132949;27;20047;-55
2021/01/17 03:42:29;;;;;;;57.72;33.97;;;0.40;93.60;;;;;;5133009;27;20141;-55
2021/01/17 03:44:55;;;;;;;61.80;34.72;;;0.30;93.50;;;;;;5132940;28;20866;-52
2021/01/17 03:47:20;;;;;;;58.17;32.42;;;0.30;93.70;;;;;;5132552;28;20092;-52
2021/01/17 03:49:46;;;;;;;59.97;32.83;;;0.30;93.70;;;;;;5132954;27;20047;-51
2021/01/17 03:52:12;;;;;;;61.88;35.13;;;0.30;94.00;;;;;;5136370;27;20066;-53
2021/01/17 03:54:37;;;;;;;67.07;36.88;;;0.20;94.00;;;;;;5136604;27;20100;-54
2021/01/17 03:57:03;;;;;;;61.83;33.83;;;0.20;94.10;;;;;;5136825;27;20060;-55
2021/01/17 03:59:29;;;;;;;66.32;35.03;;;0.30;94.20;;;;;;5136669;27;20073;-54
2021/01/17 04:01:54;;;;;;;59.00;32.38;;;0.30;94.10;;;;;;5136660;27;20444;-54
2021/01/17 04:04:20;;;;;;;68.20;35.78;;;0.30;93.90;;;;;;5136322;27;20476;-55
2021/01/17 04:06:46;;;;;;;60.35;33.38;;;0.30;94.00;;;;;;5136752;27;20043;-55
2021/01/17 04:09:12;;;;;;;61.70;34.75;;;0.20;93.90;;;;;;5136507;27;20070;-54
2021/01/17 04:11:37;;;;;;;65.63;35.05;;;0.30;94.00;;;;;;5136350;27;20042;-54
2021/01/17 04:14:03;;;;;;;64.82;34.05;;;0.30;94.00;;;;;;5136119;27;20039;-55
2021/01/17 04:16:29;;;;;;;63.92;34.35;;;0.30;94.00;;;;;;5136421;27;20131;-54
2021/01/17 04:18:54;;;;;;;65.55;34.90;;;0.30;94.10;;;;;;5136360;27;20039;-53
2021/01/17 04:21:20;;;;;;;64.22;33.63;;;0.30;94.10;;;;;;5136251;27;20081;-55
2021/01/17 04:23:46;;;;;;;64.43;33.90;;;0.30;94.20;;;;;;5136357;27;20047;-54
2021/01/17 04:26:11;;;;;;;70.32;35.20;;;0.30;94.10;;;;;;5135995;27;20180;-55
2021/01/17 04:28:37;;;;;;;63.63;34.92;;;0.20;94.10;;;;;;5136001;27;20051;-54
2021/01/17 04:31:03;;;;;;;62.60;35.65;;;0.30;94.20;;;;;;5135780;27;20054;-55
2021/01/17 04:33:29;;;;;;;66.53;33.65;;;0.30;94.30;;;;;;5136038;27;20039;-55
2021/01/17 04:35:55;;;;;;;67.03;33.88;;;0.30;94.20;;;;;;5135862;27;20097;-55
2021/01/17 04:38:21;;;;;;;69.70;35.33;;;0.30;94.30;;;;;;5135561;27;20469;-54
2021/01/17 04:40:47;;;;;;;65.88;32.75;;;0.30;94.60;;;;;;5135713;27;20042;-53
2021/01/17 04:43:15;;;;;;;68.32;35.13;;;0.30;94.60;;;;;;5135670;27;20058;-52
2021/01/17 04:45:42;;;;;;;68.68;34.97;;;0.30;94.50;;;;;;5135675;27;20379;-54
2021/01/17 04:48:08;;;;;;;69.50;36.95;;;0.30;94.60;;;;;;5135504;27;20500;-53
2021/01/17 04:50:34;;;;;;;68.32;36.00;;;0.30;94.60;;;;;;5135230;27;20051;-55
2021/01/17 04:53:07;;;;;;;72.60;35.08;;;0.40;94.80;;;;;;5135449;27;20080;-53
2021/01/17 04:55:38;;;;;;;66.00;35.10;;;0.30;94.80;;;;;;5135612;27;20518;-54
2021/01/17 04:58:05;;;;;;;70.72;35.00;;;0.30;94.80;;;;;;5135477;27;20104;-53
2021/01/17 05:00:32;;;;;;;73.75;35.92;;;0.30;94.80;;;;;;5135300;27;20035;-55
2021/01/17 05:03:16;;;;;;;70.22;35.40;;;0.30;94.80;;;;;;5135561;27;20740;-55
2021/01/17 05:05:52;;;;;;;76.65;36.72;;;0.30;95.00;;;;;;5135392;27;20035;-55
2021/01/17 05:08:27;;;;;;;70.95;35.13;;;0.30;95.10;;;;;;5134957;27;20469;-54
2021/01/17 05:11:00;;;;;;;78.32;37.42;;;0.30;95.00;;;;;;5135029;27;20066;-54
2021/01/17 05:13:34;;;;;;;71.25;34.97;;;0.30;95.10;;;;;;5135068;27;20049;-54
2021/01/17 05:16:04;;;;;;;70.72;35.58;;;0.30;95.10;;;;;;5135105;27;20027;-54
2021/01/17 05:18:30;;;;;;;65.85;34.92;;;0.30;95.20;;;;;;5134923;27;20117;-53
2021/01/17 05:21:01;;;;;;;70.45;38.15;;;0.30;95.10;;;;;;5134921;27;20043;-55
2021/01/17 05:23:34;;;;;;;74.93;35.97;;;0.30;95.10;;;;;;5135160;27;20450;-55
2021/01/17 05:26:01;;;;;;;66.25;34.08;;;0.40;95.10;;;;;;5135139;27;20096;-54
2021/01/17 05:28:29;;;;;;;70.57;35.42;;;0.30;95.10;;;;;;5134788;27;20404;-52
2021/01/17 05:30:56;;;;;;;72.95;35.90;;;0.30;95.40;;;;;;5134868;27;20126;-53
2021/01/17 05:33:27;;;;;;;71.85;35.13;;;0.30;95.20;;;;;;5134425;27;20039;-53
2021/01/17 05:35:54;;;;;;;73.28;36.78;;;0.30;95.30;;;;;;5134726;27;20446;-56
2021/01/17 05:38:19;;;;;;;70.70;34.30;;;0.30;95.30;;;;;;5134909;27;20065;-54
2021/01/17 05:40:46;;;;;;;72.05;36.47;;;0.30;95.40;;;;;;5134952;27;20050;-54
2021/01/17 05:43:11;;;;;;;72.35;34.45;;;0.30;95.50;;;;;;5134493;27;20377;-55
2021/01/17 05:45:57;;;;;;;68.43;33.00;;;0.30;95.50;;;;;;5134191;27;20047;-54
2021/01/17 05:48:43;;;;;;;71.55;35.67;;;0.30;95.60;;;;;;5134357;27;20050;-55
2021/01/17 05:51:08;;;;;;;67.75;34.17;;;0.30;95.70;;;;;;5134055;27;20412;-53
2021/01/17 05:53:34;;;;;;;71.80;34.88;;;0.30;95.70;;;;;;5132816;27;20463;-55
2021/01/17 05:56:14;;;;;;;76.78;35.17;;;0.40;95.70;;;;;;5167924;27;20043;-54
2021/01/17 05:58:43;;;;;;;;;;;0.50;95.70;;;;;;5134571;27;20043;-54
2021/01/17 06:01:19;;;;;;;61.25;31.83;;;0.50;95.90;;;;;;5134332;27;20014;-55
2021/01/17 06:03:51;;;;;;;63.60;33.83;;;0.50;95.50;;;;;;5134104;27;20053;-55
2021/01/17 06:06:27;;;;;;;67.72;34.08;;;0.50;95.40;;;;;;5134120;27;20462;-55
2021/01/17 06:08:55;;;;;;;68.25;33.08;;;0.50;95.40;;;;;;5133774;27;20503;-55
2021/01/17 06:11:22;;;;;;;62.55;32.78;;;0.50;95.50;;;;;;5134106;27;20039;-55
2021/01/17 06:14:00;;;;;;;63.15;33.55;;;0.60;95.40;;;;;;5133171;27;20043;-54
2021/01/17 06:16:37;;;;;;;67.68;32.70;;;0.60;95.30;;;;;;5133836;27;20087;-53
2021/01/17 06:19:10;;;;;;;69.22;33.33;;;0.50;95.60;;;;;;5133886;27;20122;-55
2021/01/17 06:21:37;;;;;;;68.85;34.38;;;0.60;95.70;;;;;;5133510;27;20039;-54
2021/01/17 06:24:05;;;;;;;69.72;33.33;;;0.60;95.50;;;;;;5133936;27;20043;-54
2021/01/17 06:26:33;;;;;;;64.78;32.88;;;0.60;95.60;;;;;;5133699;27;20041;-55
2021/01/17 06:29:04;;;;;;;63.83;32.97;;;0.60;95.80;;;;;;5133643;27;20042;-55
2021/01/17 06:31:31;;;;;;;58.28;32.38;;;0.70;95.60;;;;;;5133706;27;20039;-55
2021/01/17 06:34:05;;;;;;;59.72;31.77;;;0.70;95.50;;;;;;5133536;27;20050;-54
2021/01/17 06:36:31;;;;;;;64.18;31.52;;;0.60;95.40;;;;;;5133573;27;20039;-53
2021/01/17 06:38:57;;;;;;;60.78;31.58;;;0.70;95.50;;;;;;5133636;27;20137;-54
2021/01/17 06:41:35;;;;;;;64.60;32.90;;;0.70;95.60;;;;;;5133400;27;20053;-53
2021/01/17 06:44:10;;;;;;;63.38;31.70;;;0.70;95.60;;;;;;5133314;27;20504;-54
2021/01/17 06:46:46;;;;;;;67.13;32.35;;;0.70;95.50;;;;;;5132423;27;20088;-54
2021/01/17 06:49:22;;;;;;;55.22;30.73;;;0.70;95.60;;;;;;5133561;27;20039;-52
2021/01/17 06:51:50;;;;;;;66.43;32.90;;;0.70;95.50;;;;;;5133282;27;20043;-55
2021/01/17 06:54:18;;;;;;;61.97;32.33;;;0.70;95.40;;;;;;5133640;27;20056;-55
2021/01/17 06:56:45;;;;;;;62.35;30.73;;;0.70;95.40;;;;;;5133368;27;20050;-55
2021/01/17 06:59:12;;;;;;;61.78;32.08;;;0.80;95.60;;;;;;5133455;27;20127;-54
2021/01/17 07:01:43;;;;;;;70.68;34.00;;;0.80;95.40;;;;;;5133483;27;20039;-55
2021/01/17 07:04:12;;;;;;;60.63;31.65;;;0.80;95.60;;;;;;5133204;27;20124;-52
2021/01/17 07:07:06;;;;;;;63.72;31.92;;;0.70;95.60;;;;;;5133296;28;20043;-55
2021/01/17 07:09:48;;;;;;;67.93;33.05;;;0.80;95.60;;;;;;5133025;28;20043;-53
2021/01/17 07:12:32;;;;;;;63.50;33.33;;;0.70;95.60;;;;;;5133009;27;20465;-53
2021/01/17 07:15:08;;;;;;;66.07;31.38;;;0.70;95.70;;;;;;5133113;28;20047;-55
2021/01/17 07:17:41;;;;;;;63.72;30.85;;;0.80;95.70;;;;;;5133118;27;20063;-54
2021/01/17 07:20:10;;;;;;;60.75;32.88;;;0.80;95.70;;;;;;5133182;27;20135;-53
2021/01/17 07:22:37;;;;;;;62.63;32.35;;;0.80;95.60;;;;;;5133119;27;20399;-53
2021/01/17 07:25:07;;;;;;;62.80;31.48;;;0.80;95.60;;;;;;5135602;27;20053;-52
2021/01/17 07:28:04;;;;;;;63.30;30.80;;;0.80;95.60;;;;;;5137058;27;20507;-54
2021/01/17 07:30:39;;;;;;;58.30;30.48;;;0.80;95.50;;;;;;5137124;27;20126;-55
2021/01/17 07:33:06;;;;;;;62.15;31.13;;;0.80;95.70;;;;;;5137051;27;20134;-55
2021/01/17 07:35:40;;;;;;;55.92;30.52;;;0.80;95.80;;;;;;5136987;27;20201;-53
2021/01/17 07:38:10;;;;;;;68.38;32.17;;;0.80;95.70;;;;;;5137047;27;20039;-53
2021/01/17 07:40:53;;;;;;;61.58;30.90;;;0.70;95.70;;;;;;5136910;27;20084;-54
2021/01/17 07:43:22;;;;;;;58.42;30.83;;;0.70;95.90;;;;;;5136982;27;20039;-53
2021/01/17 07:45:50;;;;;;;66.50;30.10;;;0.70;95.90;;;;;;5136873;27;20043;-53
2021/01/17 07:48:17;;;;;;;62.95;31.33;;;0.70;95.90;;;;;;5136926;27;20050;-54
2021/01/17 07:50:46;;;;;;;56.60;29.38;;;0.60;95.90;;;;;;5136634;27;20047;-52
2021/01/17 07:53:22;;;;;;;61.03;29.30;;;0.60;95.90;;;;;;5136927;27;20043;-53
2021/01/17 07:55:50;;;;;;;57.67;28.08;;;0.70;95.80;;;;;;5136907;27;20039;-54
2021/01/17 07:58:17;;;;;;;62.35;30.88;;;0.70;95.70;;;;;;5136483;27;20055;-54
2021/01/17 08:00:43;;;;;;;64.05;29.90;;;0.70;95.80;;;;;;5136675;27;20130;-53
2021/01/17 08:03:24;;;;;;;62.35;30.80;;;0.70;95.90;;;;;;5136407;27;20047;-53
2021/01/17 08:05:55;;;;;;;64.50;31.50;;;0.70;95.90;;;;;;5136606;27;20051;-55
2021/01/17 08:08:44;;;;;;;53.22;30.13;;;0.80;95.70;;;;;;5136459;27;20047;-55
2021/01/17 08:11:30;;;;;;;61.67;30.42;;;0.80;95.80;;;;;;5136146;27;20150;-55
2021/01/17 08:13:55;;;;;;;54.67;28.00;;;0.80;95.80;;;;;;5136066;27;20042;-55
2021/01/17 08:16:22;;;;;;;57.90;28.58;;;0.80;95.80;;;;;;5136033;27;20042;-55
2021/01/17 08:18:49;;;;;;;56.67;28.98;;;0.80;95.80;;;;;;5136295;27;20045;-53
2021/01/17 08:21:20;;;;;;;54.50;28.65;;;0.80;95.80;;;;;;5135985;27;20046;-53
2021/01/17 08:24:13;;;;;;;53.80;26.90;;;0.80;95.90;;;;;;5136146;27;20054;-55
2021/01/17 08:27:01;;;;;;;52.95;28.85;;;0.80;95.70;;;;;;5136191;27;20739;-54
2021/01/17 08:29:28;;;;;;;54.05;28.42;;;0.90;95.70;;;;;;5136319;27;20039;-54
2021/01/17 08:31:54;;;;;;;59.20;28.73;;;0.80;95.70;;;;;;5134873;27;20138;-52
2021/01/17 08:34:29;;;;;;;55.00;27.63;;;0.90;95.70;;;;;;5135875;27;20476;-54
2021/01/17 08:36:56;;;;;;;57.30;26.63;;;0.80;95.80;;;;;;5134948;27;20043;-54
2021/01/17 08:39:42;;;;;;;58.45;26.85;;;0.80;95.80;;;;;;5136043;27;20050;-55
2021/01/17 08:42:34;;;;;;;54.78;26.92;;;0.80;95.80;;;;;;5135931;27;20042;-52
2021/01/17 08:45:02;;;;;;;50.58;25.52;;;0.70;95.90;;;;;;5135815;27;20047;-54
2021/01/17 08:47:34;;;;;;;58.25;27.73;;;0.70;96.00;;;;;;5135613;27;20124;-54
2021/01/17 08:50:00;;;;;;;54.13;26.45;;;0.70;96.10;;;;;;5135698;27;20104;-55
2021/01/17 08:52:28;;;;;;;59.80;27.65;;;0.80;96.10;;;;;;5135154;27;20051;-50
2021/01/17 08:54:54;;;;;;;54.05;26.08;;;0.80;96.10;;;;;;5135602;27;20138;-52
2021/01/17 08:57:42;;;;;;;50.95;25.92;;;0.80;96.00;;;;;;5135179;27;20551;-54
2021/01/17 09:00:16;;;;;;;47.65;24.92;;;0.80;96.10;;;;;;5135773;27;20043;-55
2021/01/17 09:02:41;;;;;;;48.83;25.50;;;0.80;96.10;;;;;;5135505;27;20043;-55
2021/01/17 09:05:19;;;;;;;50.78;26.13;;;0.80;96.10;;;;;;5135091;27;20070;-55
2021/01/17 09:07:46;;;;;;;45.65;24.15;;;0.90;96.00;;;;;;5135149;27;20039;-56
2021/01/17 09:10:16;;;;;;;50.45;23.65;;;0.90;96.10;;;;;;5135142;27;20043;-55
2021/01/17 09:12:43;;;;;;;51.00;25.35;;;0.80;96.10;;;;;;5135113;27;20051;-56
2021/01/17 09:15:17;;;;;;;42.85;22.35;;;0.80;96.20;;;;;;5135150;27;20043;-55
2021/01/17 09:17:56;;;;;;;51.95;25.30;;;0.80;96.20;;;;;;5134632;27;20469;-55
2021/01/17 09:20:22;;;;;;;51.80;24.67;;;0.80;96.30;;;;;;5134726;27;20115;-55
2021/01/17 09:22:49;;;;;;;53.15;27.00;;;0.80;96.40;;;;;;5134649;27;20042;-54
2021/01/17 09:25:16;;;;;;;50.45;23.58;;;0.80;96.50;;;;;;5134571;27;20064;-56
2021/01/17 09:27:42;;;;;;;54.25;24.52;;;0.80;96.40;;;;;;5134657;27;20043;-56
2021/01/17 09:30:10;;;;;;;48.72;24.83;;;0.80;96.70;;;;;;5134514;27;20072;-55
2021/01/17 09:32:37;;;;;;;50.70;25.10;;;0.90;96.40;;;;;;5134306;27;20054;-55
2021/01/17 09:35:06;;;;;;;51.65;25.10;;;0.90;96.50;;;;;;5134353;27;20377;-55
2021/01/17 09:37:34;;;;;;;57.25;24.50;;;0.90;96.40;;;;;;5134636;27;20370;-55
2021/01/17 09:40:00;;;;;;;52.85;24.60;;;0.90;96.30;;;;;;5134697;27;20043;-55
2021/01/17 09:42:27;;;;;;;53.67;24.23;;;0.90;96.60;;;;;;5134241;27;20054;-54
2021/01/17 09:44:58;;;;;;;57.65;24.33;;;1.00;96.30;;;;;;5134308;27;20134;-54
2021/01/17 09:47:26;;;;;;;47.97;25.45;;;1.00;96.20;;;;;;5130339;27;20506;-56
2021/01/17 09:49:52;;;;;;;62.13;24.92;;;1.00;96.30;;;;;;5134024;27;20043;-58
2021/01/17 09:52:23;;;;;;;53.10;24.00;;;1.00;96.30;;;;;;5133770;27;20130;-58
2021/01/17 09:54:50;;;;;;;52.40;24.05;;;1.10;96.30;;;;;;5134281;27;20039;-58
2021/01/17 09:57:21;;;;;;;47.30;23.35;;;1.20;96.30;;;;;;5133810;27;20067;-58
2021/01/17 09:59:49;;;;;;;53.97;23.58;;;1.20;96.10;;;;;;5131661;27;20515;-58
2021/01/17 10:02:19;;;;;;;53.13;22.97;;;1.20;96.10;;;;;;5133863;27;20062;-58
2021/01/17 10:04:45;;;;;;;48.83;24.55;;;1.20;96.00;;;;;;5134214;27;20043;-58
2021/01/17 10:07:17;;;;;;;56.47;24.17;;;1.30;96.10;;;;;;5132762;27;20545;-59
2021/01/17 10:09:44;;;;;;;56.60;24.80;;;1.30;96.00;;;;;;5134153;27;20451;-59
2021/01/17 10:12:11;;;;;;;56.28;25.15;;;1.30;96.10;;;;;;5133452;27;20541;-59
2021/01/17 10:14:37;;;;;;;56.78;24.63;;;1.30;96.00;;;;;;5134003;27;20070;-59
2021/01/17 10:17:05;;;;;;;53.47;23.58;;;1.40;95.90;;;;;;5133682;27;20092;-55
2021/01/17 10:19:35;;;;;;;53.63;23.30;;;1.30;96.00;;;;;;5132548;27;20050;-59
2021/01/17 10:22:02;;;;;;;54.90;23.65;;;1.40;96.00;;;;;;5133329;27;20043;-55
2021/01/17 10:24:30;;;;;;;57.60;24.27;;;1.40;96.00;;;;;;5134046;27;20523;-58
2021/01/17 10:26:58;;;;;;;55.35;24.00;;;1.40;96.20;;;;;;5129391;27;20046;-55
2021/01/17 10:29:29;;;;;;;59.97;24.35;;;1.40;96.10;;;;;;5132483;27;20096;-55
2021/01/17 10:31:58;;;;;;;60.30;25.80;;;1.40;96.10;;;;;;5132730;27;20047;-55
2021/01/17 10:34:24;;;;;;;;;;;1.40;96.30;;;;;;5132719;27;20066;-56
2021/01/17 10:36:58;;;;;;;58.42;24.35;;;1.40;96.20;;;;;;5133278;27;20387;-55
2021/01/17 10:39:25;;;;;;;68.45;25.60;;;1.50;96.20;;;;;;5133491;27;20043;-55
2021/01/17 10:42:00;;;;;;;57.83;24.50;;;1.50;96.10;;;;;;5133192;27;20047;-54
2021/01/17 10:44:27;;;;;;;51.67;22.92;;;1.60;96.00;;;;;;5133402;27;20039;-55
2021/01/17 10:47:02;;;;;;;65.35;24.90;;;1.60;96.00;;;;;;5132166;27;20080;-56
2021/01/17 10:49:33;;;;;;;64.03;24.85;;;1.60;96.10;;;;;;5133044;27;20058;-56
2021/01/17 10:52:09;;;;;;;64.65;25.65;;;1.60;96.30;;;;;;5133134;27;20057;-56
2021/01/17 10:54:35;;;;;;;77.10;27.75;;;1.60;96.20;;;;;;5133196;27;20039;-55
2021/01/17 10:57:03;;;;;;;93.75;32.55;;;1.70;96.20;;;;;;5132909;27;20121;-56
2021/01/17 10:59:30;;;;;;;97.70;37.33;;;1.70;96.00;;;;;;5132645;27;20399;-55
2021/01/17 11:01:56;;;;;;;101.88;37.15;;;1.70;96.00;;;;;;5132926;27;20476;-55
2021/01/17 11:04:21;;;;;;;107.72;40.47;;;1.70;96.00;;;;;;5132822;27;20039;-56
2021/01/17 11:06:48;;;;;;;106.07;36.65;;;1.70;96.10;;;;;;5132850;27;20046;-55
2021/01/17 11:09:15;;;;;;;99.93;36.42;;;1.80;95.90;;;;;;5132966;27;20039;-53
2021/01/17 11:11:46;;;;;;;85.63;34.22;;;1.80;96.00;;;;;;5132977;27;20035;-55
2021/01/17 11:14:13;;;;;;;104.88;37.28;;;1.80;95.90;;;;;;5132899;27;20050;-55
2021/01/17 11:16:44;;;;;;;99.05;37.20;;;1.90;95.90;;;;;;5132891;27;20046;-54
2021/01/17 11:19:14;;;;;;;98.82;39.33;;;1.90;95.80;;;;;;5132777;27;20039;-55
2021/01/17 11:21:47;;;;;;;96.40;35.90;;;1.90;95.90;;;;;;5133040;27;20100;-55
2021/01/17 11:24:14;;;;;;;90.15;33.33;;;2.00;95.90;;;;;;5132897;27;20042;-55
2021/01/17 11:26:40;;;;;;;89.15;30.42;;;1.90;95.90;;;;;;5131472;28;20043;-56
2021/01/17 11:29:14;;;;;;;69.70;27.98;;;2.00;96.00;;;;;;5132859;27;20047;-56
2021/01/17 11:31:44;;;;;;;79.65;29.55;;;2.10;96.10;;;;;;5132562;27;20057;-55
2021/01/17 11:34:14;;;;;;;61.88;25.08;;;2.20;95.90;;;;;;5132789;27;20040;-55
2021/01/17 11:36:40;;;;;;;61.58;25.05;;;2.20;95.80;;;;;;5132495;27;20040;-56
2021/01/17 11:39:05;;;;;;;54.33;24.80;;;2.20;96.00;;;;;;5132638;27;20088;-55
2021/01/17 11:41:36;;;;;;;67.78;26.90;;;2.20;95.90;;;;;;5132520;27;20043;-54
2021/01/17 11:44:07;;;;;;;63.70;24.88;;;2.20;95.90;;;;;;5132552;27;20082;-54
2021/01/17 11:46:33;;;;;;;55.58;24.70;;;2.20;96.00;;;;;;5132680;27;20081;-55
2021/01/17 11:49:00;;;;;;;59.67;23.70;;;2.20;95.90;;;;;;5132597;27;20079;-55
2021/01/17 11:51:27;;;;;;;53.55;22.92;;;2.30;95.80;;;;;;5132460;27;20501;-56
2021/01/17 11:53:52;;;;;;;60.30;24.33;;;2.30;95.80;;;;;;5132565;27;20058;-54
2021/01/17 11:56:18;;;;;;;59.13;23.52;;;2.30;95.70;;;;;;5132586;27;20436;-55
2021/01/17 11:58:44;;;;;;;65.05;23.95;;;2.30;95.80;;;;;;5132286;27;20061;-54
2021/01/17 12:01:10;;;;;;;53.95;23.73;;;2.30;95.80;;;;;;5132263;27;20043;-55
2021/01/17 12:03:41;;;;;;;55.53;24.20;;;2.30;96.00;;;;;;5132470;27;20046;-56
2021/01/17 12:06:08;;;;;;;51.22;21.85;;;2.40;96.10;;;;;;5132510;27;20119;-54
2021/01/17 12:09:17;;;;;;;59.40;23.35;;;2.40;96.00;;;;;;5132196;27;20039;-54
2021/01/17 12:11:46;;;;;;;48.67;21.85;;;2.40;96.60;;;;;;5111371;28;20047;-56
2021/01/17 12:14:31;;;;;;;54.72;21.55;;;2.50;96.40;;;;;;5113399;28;20096;-55
2021/01/17 12:16:59;;;;;;;58.05;21.92;;;2.50;96.20;;;;;;5113192;28;20635;-55
2021/01/17 12:19:26;;;;;;;46.83;22.92;;;2.50;96.40;;;;;;5113349;28;20050;-56
2021/01/17 12:21:57;;;;;;;45.33;22.08;;;2.50;96.40;;;;;;5113110;28;20048;-55
2021/01/17 12:24:23;;;;;;;47.33;20.58;;;2.60;96.40;;;;;;5113346;28;20094;-53
2021/01/17 12:26:52;;;;;;;46.08;21.52;;;2.60;96.50;;;;;;5113238;28;20051;-55
2021/01/17 12:29:18;;;;;;;46.40;21.88;;;2.60;96.40;;;;;;5113167;28;20043;-56
2021/01/17 12:31:44;;;;;;;51.90;22.10;;;2.60;96.70;;;;;;5113297;28;20108;-56
2021/01/17 12:34:10;;;;;;;40.90;20.33;;;2.60;96.60;;;;;;5112995;28;20100;-56
2021/01/17 12:36:38;;;;;;;53.83;21.20;;;2.60;96.80;;;;;;5112744;28;20039;-54
2021/01/17 12:39:05;;;;;;;47.92;21.05;;;2.60;96.70;;;;;;5112746;28;20050;-55
2021/01/17 12:41:36;;;;;;;49.38;21.77;;;2.60;96.70;;;;;;5112935;28;20035;-56
2021/01/17 12:44:02;;;;;;;49.67;20.92;;;2.70;96.60;;;;;;5112745;28;20044;-55
2021/01/17 12:46:28;;;;;;;51.55;21.25;;;2.70;96.60;;;;;;5132874;27;20070;-56
2021/01/17 12:48:55;;;;;;;50.53;21.27;;;2.70;96.90;;;;;;5134144;27;20051;-55